createdAt,value
2022-09-30T00:02:18.471Z,17.34
2022-09-30T00:04:45.651Z,17.23
2022-09-30T00:07:12.410Z,17.39
2022-09-30T00:09:39.339Z,17.36
2022-09-30T00:12:06.481Z,17.36
2022-09-30T00:14:33.236Z,17.50
2022-09-30T00:17:00.107Z,17.57
2022-09-30T00:19:27.067Z,17.62
2022-09-30T00:21:53.763Z,17.39
2022-09-30T00:24:21.126Z,17.53
2022-09-30T00:26:48.043Z,17.55
2022-09-30T00:29:14.756Z,17.57
2022-09-30T00:31:41.695Z,17.47
2022-09-30T00:34:09.327Z,17.54
2022-09-30T00:36:38.148Z,17.59
2022-09-30T00:39:06.128Z,17.56
2022-09-30T00:41:33.102Z,17.52
2022-09-30T00:43:59.802Z,17.82
2022-09-30T00:46:35.242Z,17.61
2022-09-30T00:49:04.396Z,17.59
2022-09-30T00:51:35.891Z,17.41
2022-09-30T00:54:07.406Z,17.52
2022-09-30T00:56:34.888Z,17.63
2022-09-30T00:59:04.572Z,17.31
2022-09-30T01:01:31.594Z,17.41
2022-09-30T01:04:05.978Z,17.28
2022-09-30T01:06:32.897Z,17.30
2022-09-30T01:08:59.697Z,17.43
2022-09-30T01:11:27.326Z,17.47
2022-09-30T01:13:55.275Z,17.56
2022-09-30T01:16:22.022Z,17.55
2022-09-30T01:18:51.587Z,17.64
2022-09-30T01:21:30.632Z,17.64
2022-09-30T01:24:03.464Z,17.64
2022-09-30T01:26:59.954Z,17.68
2022-09-30T01:29:38.481Z,17.72
2022-09-30T01:32:05.386Z,17.86
2022-09-30T01:34:37.476Z,17.67
2022-09-30T01:37:10.186Z,17.10
2022-09-30T01:39:43.292Z,17.74
2022-09-30T01:42:10.156Z,17.75
2022-09-30T01:44:55.967Z,17.78
2022-09-30T01:47:25.369Z,17.87
2022-09-30T01:49:55.219Z,17.91
2022-09-30T01:52:29.100Z,17.98
2022-09-30T01:54:59.275Z,17.94
2022-09-30T01:57:25.911Z,17.72
2022-09-30T02:00:00.732Z,17.97
2022-09-30T02:02:28.435Z,17.84
2022-09-30T02:04:57.702Z,17.69
2022-09-30T02:07:26.170Z,17.67
2022-09-30T02:09:55.141Z,17.84
2022-09-30T02:12:22.727Z,17.94
2022-09-30T02:15:09.650Z,17.83
2022-09-30T02:17:40.629Z,17.76
2022-09-30T02:20:08.241Z,17.74
2022-09-30T02:22:42.513Z,17.76
2022-09-30T02:25:11.524Z,17.63
2022-09-30T02:27:42.368Z,17.70
2022-09-30T02:30:09.675Z,17.58
2022-09-30T02:32:44.535Z,17.84
2022-09-30T02:35:20.026Z,17.91
2022-09-30T02:37:50.378Z,17.79
2022-09-30T02:40:32.466Z,17.85
2022-09-30T02:42:59.102Z,17.93
2022-09-30T02:45:26.944Z,17.82
2022-09-30T02:47:56.611Z,17.73
2022-09-30T02:50:26.918Z,17.61
2022-09-30T02:53:12.797Z,17.65
2022-09-30T02:55:39.521Z,17.86
2022-09-30T02:58:09.432Z,17.84
2022-09-30T03:00:36.113Z,17.96
2022-09-30T03:03:05.291Z,18.00
2022-09-30T03:05:32.260Z,17.87
2022-09-30T03:07:58.897Z,17.94
2022-09-30T03:10:25.553Z,17.85
2022-09-30T03:12:55.512Z,17.92
2022-09-30T03:15:25.019Z,17.73
2022-09-30T03:17:59.566Z,17.72
2022-09-30T03:20:32.374Z,17.90
2022-09-30T03:23:08.336Z,17.86
2022-09-30T03:25:40.921Z,17.78
2022-09-30T03:28:25.150Z,17.87
2022-09-30T03:31:10.469Z,17.61
2022-09-30T03:33:40.166Z,17.83
2022-09-30T03:36:06.837Z,17.98
2022-09-30T03:38:36.757Z,18.15
2022-09-30T03:41:06.419Z,18.15
2022-09-30T03:43:33.678Z,18.11
2022-09-30T03:46:06.953Z,18.10
2022-09-30T03:48:34.073Z,18.06
2022-09-30T03:51:00.746Z,18.04
2022-09-30T03:53:28.589Z,17.87
2022-09-30T03:55:55.524Z,17.78
2022-09-30T03:58:23.530Z,17.86
2022-09-30T04:00:51.218Z,17.82
2022-09-30T04:03:21.612Z,17.96
2022-09-30T04:05:48.341Z,17.84
2022-09-30T04:08:15.127Z,17.98
2022-09-30T04:10:42.425Z,18.16
2022-09-30T04:13:09.499Z,18.07
2022-09-30T04:15:36.332Z,18.15
2022-09-30T04:18:04.103Z,18.20
2022-09-30T04:20:31.043Z,18.08
2022-09-30T04:22:58.766Z,17.99
2022-09-30T04:25:26.286Z,17.89
2022-09-30T04:27:53.100Z,18.07
2022-09-30T04:30:24.574Z,18.12
2022-09-30T04:32:52.680Z,18.21
2022-09-30T04:35:19.674Z,18.08
2022-09-30T04:37:47.031Z,18.08
2022-09-30T04:40:14.866Z,18.06
2022-09-30T04:42:42.929Z,18.05
2022-09-30T04:45:12.767Z,17.95
2022-09-30T04:47:43.386Z,18.05
2022-09-30T04:50:10.383Z,17.91
2022-09-30T04:52:38.407Z,17.94
2022-09-30T04:55:05.609Z,18.19
2022-09-30T04:57:32.280Z,18.25
2022-09-30T04:59:59.492Z,18.29
2022-09-30T05:02:26.507Z,18.31
2022-09-30T05:04:54.584Z,18.40
2022-09-30T05:07:22.088Z,18.26
2022-09-30T05:09:49.257Z,18.35
2022-09-30T05:12:16.336Z,18.26
2022-09-30T05:14:43.182Z,18.31
2022-09-30T05:17:10.557Z,18.28
2022-09-30T05:19:37.255Z,18.22
2022-09-30T05:22:03.900Z,18.23
2022-09-30T05:24:30.989Z,18.30
2022-09-30T05:26:57.650Z,18.32
2022-09-30T05:29:24.380Z,18.34
2022-09-30T05:31:51.422Z,18.24
2022-09-30T05:34:18.170Z,18.21
2022-09-30T05:36:44.874Z,18.30
2022-09-30T05:39:12.109Z,18.41
2022-09-30T05:41:38.843Z,18.50
2022-09-30T05:44:06.324Z,18.41
2022-09-30T05:46:33.345Z,18.29
2022-09-30T05:49:00.142Z,18.27
2022-09-30T05:51:26.932Z,18.49
2022-09-30T05:53:53.932Z,18.41
2022-09-30T05:56:20.649Z,18.38
2022-09-30T05:58:47.466Z,18.43
2022-09-30T06:01:15.577Z,18.27
2022-09-30T06:03:43.275Z,18.28
2022-09-30T06:06:10.237Z,18.40
2022-09-30T06:08:37.021Z,18.24
2022-09-30T06:11:10.199Z,18.44
2022-09-30T06:13:37.442Z,18.48
2022-09-30T06:16:05.523Z,18.61
2022-09-30T06:18:32.963Z,18.53
2022-09-30T06:21:00.356Z,18.21
2022-09-30T06:23:27.458Z,18.22
2022-09-30T06:25:54.389Z,18.21
2022-09-30T06:28:21.868Z,18.48
2022-09-30T06:30:49.024Z,18.32
2022-09-30T06:33:15.769Z,18.22
2022-09-30T06:35:44.904Z,18.07
2022-09-30T06:38:12.059Z,18.07
2022-09-30T06:40:38.765Z,18.06
2022-09-30T06:43:05.497Z,18.20
2022-09-30T06:45:33.435Z,18.36
2022-09-30T06:48:01.519Z,18.37
2022-09-30T06:50:29.704Z,18.32
2022-09-30T06:53:29.776Z,18.36
2022-09-30T06:55:57.138Z,18.45
2022-09-30T06:58:26.767Z,18.44
2022-09-30T07:01:01.419Z,18.44
2022-09-30T07:03:31.638Z,18.66
2022-09-30T07:05:59.419Z,18.62
2022-09-30T07:08:29.071Z,18.50
2022-09-30T07:10:56.244Z,18.57
2022-09-30T07:13:23.130Z,18.72
2022-09-30T07:15:52.218Z,18.63
2022-09-30T07:18:20.595Z,18.55
2022-09-30T07:20:50.886Z,18.55
2022-09-30T07:23:17.791Z,18.62
2022-09-30T07:25:51.648Z,18.62
2022-09-30T07:28:18.350Z,18.54
2022-09-30T07:30:45.380Z,18.44
2022-09-30T07:33:16.570Z,18.63
2022-09-30T07:35:56.295Z,18.54
2022-09-30T07:38:26.017Z,18.81
2022-09-30T07:40:58.206Z,18.88
2022-09-30T07:43:25.533Z,18.72
2022-09-30T07:45:52.228Z,18.56
2022-09-30T07:48:57.491Z,18.52
2022-09-30T07:51:27.007Z,18.68
2022-09-30T07:53:54.467Z,18.70
2022-09-30T07:56:21.933Z,18.67
2022-09-30T07:58:49.225Z,18.74
2022-09-30T08:01:17.213Z,18.72
2022-09-30T08:03:47.227Z,18.53
2022-09-30T08:06:15.142Z,18.32
2022-09-30T08:08:42.184Z,18.57
2022-09-30T08:11:09.194Z,18.28
2022-09-30T08:13:36.086Z,18.46
2022-09-30T08:16:02.805Z,18.71
2022-09-30T08:18:29.929Z,18.65
2022-09-30T08:20:56.729Z,18.46
2022-09-30T08:23:23.441Z,18.50
2022-09-30T08:25:50.439Z,18.11
2022-09-30T08:28:18.362Z,18.54
2022-09-30T08:30:45.092Z,18.52
2022-09-30T08:33:12.028Z,18.51
2022-09-30T08:35:38.723Z,18.32
2022-09-30T08:38:05.404Z,18.00
2022-09-30T08:40:33.325Z,17.67
2022-09-30T08:43:03.076Z,18.03
2022-09-30T08:45:35.697Z,17.57
2022-09-30T08:48:08.866Z,17.55
2022-09-30T08:50:40.759Z,17.57
2022-09-30T08:53:12.038Z,17.19
2022-09-30T08:55:40.141Z,17.01
2022-09-30T08:58:07.452Z,17.06
2022-09-30T09:00:34.185Z,17.51
2022-09-30T09:03:01.119Z,17.19
2022-09-30T09:05:34.030Z,17.71
2022-09-30T09:08:03.817Z,17.73
2022-09-30T09:10:34.391Z,18.12
2022-09-30T09:13:01.312Z,18.05
2022-09-30T09:15:33.662Z,17.54
2022-09-30T09:18:22.747Z,17.88
2022-09-30T09:20:54.936Z,18.23
2022-09-30T09:23:22.084Z,18.15
2022-09-30T09:25:52.961Z,17.86
2022-09-30T09:28:33.784Z,17.54
2022-09-30T09:31:01.724Z,17.42
2022-09-30T09:33:29.799Z,17.58
2022-09-30T09:36:08.920Z,17.88
2022-09-30T09:38:39.402Z,17.97
2022-09-30T09:41:12.942Z,17.95
2022-09-30T09:43:52.067Z,18.00
2022-09-30T09:46:26.616Z,17.72
2022-09-30T09:49:13.033Z,17.69
2022-09-30T09:51:40.993Z,17.76
2022-09-30T09:54:08.945Z,17.94
2022-09-30T09:56:37.852Z,17.93
2022-09-30T09:59:05.312Z,18.15
2022-09-30T10:01:42.678Z,18.47
2022-09-30T10:04:17.782Z,18.13
2022-09-30T10:06:59.964Z,17.62
2022-09-30T10:09:37.032Z,17.93
2022-09-30T10:12:06.830Z,18.22
2022-09-30T10:14:46.242Z,18.33
2022-09-30T10:17:20.090Z,17.95
2022-09-30T10:19:49.787Z,17.88
2022-09-30T10:22:17.466Z,18.26
2022-09-30T10:24:44.252Z,18.08
2022-09-30T10:27:30.727Z,18.19
2022-09-30T10:29:57.418Z,18.17
2022-09-30T10:32:24.519Z,18.22
2022-09-30T10:34:55.105Z,18.21
2022-09-30T10:37:22.412Z,18.64
2022-09-30T10:40:01.412Z,19.16
2022-09-30T10:42:29.742Z,19.31
2022-09-30T10:44:57.527Z,18.99
2022-09-30T10:47:26.326Z,18.44
2022-09-30T10:50:07.188Z,18.98
2022-09-30T10:52:35.203Z,18.34
2022-09-30T10:55:14.724Z,18.51
2022-09-30T10:57:43.342Z,19.01
2022-09-30T11:00:10.121Z,18.82
2022-09-30T11:02:37.086Z,19.10
2022-09-30T11:05:24.596Z,19.19
2022-09-30T11:07:57.351Z,18.99
2022-09-30T11:10:33.248Z,19.02
2022-09-30T11:13:20.229Z,19.12
2022-09-30T11:16:11.668Z,19.31
2022-09-30T11:18:38.389Z,18.93
2022-09-30T11:21:07.376Z,19.88
2022-09-30T11:23:36.253Z,19.84
2022-09-30T11:26:05.631Z,18.67
2022-09-30T11:28:42.038Z,19.58
2022-09-30T11:31:13.724Z,19.89
2022-09-30T11:33:44.147Z,20.02
2022-09-30T11:36:10.824Z,20.13
2022-09-30T11:38:46.462Z,19.54
2022-09-30T11:41:30.428Z,19.97
2022-09-30T11:43:57.101Z,20.06
2022-09-30T11:46:33.447Z,19.96
2022-09-30T11:49:24.761Z,20.25
2022-09-30T11:52:04.262Z,20.32
2022-09-30T11:54:40.547Z,20.03
2022-09-30T11:57:08.614Z,20.41
2022-09-30T11:59:42.893Z,20.10
2022-09-30T12:02:26.860Z,20.34
2022-09-30T12:04:58.361Z,20.58
2022-09-30T12:07:38.711Z,20.90
2022-09-30T12:10:27.246Z,20.56
2022-09-30T12:12:58.360Z,20.62
2022-09-30T12:15:27.143Z,20.54
2022-09-30T12:17:57.479Z,20.79
2022-09-30T12:20:36.490Z,20.68
2022-09-30T12:23:23.800Z,20.51
2022-09-30T12:26:01.197Z,20.97
2022-09-30T12:28:47.201Z,21.42
2022-09-30T12:31:36.138Z,21.55
2022-09-30T12:34:03.971Z,21.22
2022-09-30T12:36:50.918Z,21.06
2022-09-30T12:39:17.991Z,20.84
2022-09-30T12:41:48.375Z,21.27
2022-09-30T12:44:41.041Z,21.19
2022-09-30T12:47:08.111Z,21.03
2022-09-30T12:49:35.252Z,20.69
2022-09-30T12:52:05.479Z,20.80
2022-09-30T12:54:36.293Z,20.92
2022-09-30T12:57:04.102Z,21.11
2022-09-30T12:59:32.170Z,20.92
2022-09-30T13:01:59.494Z,20.93
2022-09-30T13:04:29.543Z,21.03
2022-09-30T13:06:56.280Z,20.85
2022-09-30T13:09:55.856Z,20.72
2022-09-30T13:12:30.463Z,20.67
2022-09-30T13:15:17.398Z,20.61
2022-09-30T13:17:45.896Z,20.80
2022-09-30T13:20:31.459Z,20.56
2022-09-30T13:22:59.997Z,20.37
2022-09-30T13:25:27.495Z,20.60
2022-09-30T13:28:21.206Z,20.59
2022-09-30T13:30:48.268Z,20.43
2022-09-30T13:33:28.299Z,20.30
2022-09-30T13:35:57.657Z,20.31
2022-09-30T13:38:33.685Z,20.55
2022-09-30T13:41:06.867Z,20.52
2022-09-30T13:43:43.469Z,20.24
2022-09-30T13:46:17.283Z,20.47
2022-09-30T13:49:10.249Z,20.62
2022-09-30T13:51:38.006Z,20.39
2022-09-30T13:54:30.249Z,20.19
2022-09-30T13:56:57.389Z,20.34
2022-09-30T13:59:24.598Z,20.45
2022-09-30T14:01:55.895Z,20.49
2022-09-30T14:04:32.128Z,20.63
2022-09-30T14:07:14.228Z,20.60
2022-09-30T14:09:41.132Z,20.71
2022-09-30T14:12:12.353Z,20.31
2022-09-30T14:15:00.610Z,20.54
2022-09-30T14:17:46.326Z,20.43
2022-09-30T14:20:23.044Z,20.21
2022-09-30T14:22:50.201Z,20.32
2022-09-30T14:25:17.825Z,20.30
2022-09-30T14:28:04.948Z,20.70
2022-09-30T14:30:34.442Z,20.58
2022-09-30T14:33:11.234Z,20.51
2022-09-30T14:35:41.118Z,20.48
2022-09-30T14:38:08.586Z,20.56
2022-09-30T14:40:36.348Z,20.51
2022-09-30T14:43:04.973Z,20.54
2022-09-30T14:45:33.047Z,20.66
2022-09-30T14:48:02.401Z,20.70
2022-09-30T14:50:31.352Z,20.63
2022-09-30T14:53:00.478Z,20.78
2022-09-30T14:55:31.365Z,20.76
2022-09-30T14:58:21.576Z,20.71
2022-09-30T15:01:08.562Z,20.77
2022-09-30T15:03:37.032Z,21.01
2022-09-30T15:06:03.902Z,20.83
2022-09-30T15:08:30.588Z,20.85
2022-09-30T15:10:57.530Z,20.82
2022-09-30T15:13:25.135Z,20.81
2022-09-30T15:15:51.879Z,20.72
2022-09-30T15:18:25.910Z,20.66
2022-09-30T15:20:54.461Z,20.39
2022-09-30T15:23:24.462Z,20.42
2022-09-30T15:25:52.808Z,20.42
2022-09-30T15:28:19.534Z,20.33
2022-09-30T15:30:46.497Z,20.26
2022-09-30T15:33:17.801Z,20.38
2022-09-30T15:35:45.272Z,20.32
2022-09-30T15:38:14.918Z,20.02
2022-09-30T15:40:50.276Z,20.13
2022-09-30T15:43:36.706Z,20.23
2022-09-30T15:46:27.312Z,20.33
2022-09-30T15:48:55.767Z,20.32
2022-09-30T15:51:41.250Z,20.24
2022-09-30T15:54:15.349Z,20.22
2022-09-30T15:56:43.294Z,20.17
2022-09-30T15:59:14.949Z,20.17
2022-09-30T16:01:49.197Z,20.09
2022-09-30T16:04:16.874Z,20.16
2022-09-30T16:06:48.699Z,20.17
2022-09-30T16:09:38.494Z,20.17
2022-09-30T16:12:12.952Z,20.10
2022-09-30T16:14:45.053Z,20.00
2022-09-30T16:17:18.265Z,20.00
2022-09-30T16:19:52.657Z,19.96
2022-09-30T16:22:41.793Z,19.81
2022-09-30T16:25:35.255Z,19.92
2022-09-30T16:28:12.692Z,19.82
2022-09-30T16:30:48.089Z,19.79
2022-09-30T16:33:16.797Z,19.79
2022-09-30T16:35:49.625Z,19.63
2022-09-30T16:38:17.420Z,19.59
2022-09-30T16:40:44.122Z,19.50
2022-09-30T16:43:13.844Z,19.61
2022-09-30T16:45:43.860Z,19.41
2022-09-30T16:48:23.907Z,19.39
2022-09-30T16:51:14.533Z,19.27
2022-09-30T16:53:41.786Z,19.09
2022-09-30T16:56:14.448Z,19.12
2022-09-30T16:58:42.846Z,18.93
2022-09-30T17:01:20.720Z,19.10
2022-09-30T17:03:47.726Z,19.09
2022-09-30T17:06:15.281Z,18.99
2022-09-30T17:08:44.329Z,18.89
2022-09-30T17:11:11.455Z,19.07
2022-09-30T17:13:38.674Z,18.80
2022-09-30T17:16:05.573Z,18.95
2022-09-30T17:18:32.653Z,18.89
2022-09-30T17:21:01.308Z,18.86
2022-09-30T17:23:28.111Z,18.71
2022-09-30T17:25:55.028Z,18.48
2022-09-30T17:28:22.484Z,18.62
2022-09-30T17:30:50.425Z,18.58
2022-09-30T17:33:18.970Z,18.71
2022-09-30T17:35:46.259Z,18.83
2022-09-30T17:38:13.180Z,18.86
2022-09-30T17:40:58.626Z,18.54
2022-09-30T17:43:25.548Z,18.42
2022-09-30T17:45:52.465Z,18.51
2022-09-30T17:48:19.311Z,18.42
2022-09-30T17:50:46.990Z,18.46
2022-09-30T17:53:14.378Z,18.29
2022-09-30T17:55:41.628Z,18.40
2022-09-30T17:58:09.372Z,18.49
2022-09-30T18:00:36.835Z,18.29
2022-09-30T18:03:04.235Z,18.23
2022-09-30T18:05:31.959Z,18.26
2022-09-30T18:07:58.846Z,18.19
2022-09-30T18:10:25.935Z,18.20
2022-09-30T18:12:53.057Z,18.22
2022-09-30T18:15:20.657Z,18.22
2022-09-30T18:17:47.881Z,18.13
2022-09-30T18:20:14.972Z,18.15
2022-09-30T18:22:41.663Z,18.13
2022-09-30T18:25:20.917Z,18.07
2022-09-30T18:27:49.651Z,18.01
2022-09-30T18:30:18.838Z,17.87
2022-09-30T18:32:49.656Z,17.78
2022-09-30T18:35:18.537Z,17.70
2022-09-30T18:37:47.756Z,17.47
2022-09-30T18:40:17.414Z,17.75
2022-09-30T18:42:44.342Z,17.66
2022-09-30T18:45:12.701Z,17.64
2022-09-30T18:47:41.227Z,17.65
2022-09-30T18:50:14.149Z,17.63
2022-09-30T18:52:41.128Z,17.67
2022-09-30T18:55:09.808Z,17.67
2022-09-30T18:57:36.608Z,17.88
2022-09-30T19:00:04.131Z,17.97
2022-09-30T19:02:34.637Z,17.95
2022-09-30T19:05:01.589Z,17.66
2022-09-30T19:07:29.088Z,17.50
2022-09-30T19:09:55.833Z,17.56
2022-09-30T19:12:22.639Z,17.43
2022-09-30T19:14:49.659Z,17.62
2022-09-30T19:17:17.070Z,17.67
2022-09-30T19:19:46.130Z,17.68
2022-09-30T19:22:13.646Z,17.54
2022-09-30T19:24:42.766Z,17.53
2022-09-30T19:27:11.224Z,17.57
2022-09-30T19:29:39.522Z,17.25
2022-09-30T19:32:10.280Z,17.26
2022-09-30T19:34:39.031Z,17.52
2022-09-30T19:37:08.018Z,17.60
2022-09-30T19:39:45.812Z,17.70
2022-09-30T19:42:14.487Z,17.70
2022-09-30T19:44:42.012Z,17.77
2022-09-30T19:47:09.536Z,17.82
2022-09-30T19:49:37.564Z,17.64
2022-09-30T19:52:18.051Z,17.50
2022-09-30T19:54:48.990Z,17.41
2022-09-30T19:57:16.144Z,17.52
2022-09-30T19:59:43.538Z,17.77
2022-09-30T20:02:11.598Z,17.72
2022-09-30T20:04:40.417Z,17.85
2022-09-30T20:07:07.142Z,17.76
2022-09-30T20:09:34.789Z,17.90
2022-09-30T20:12:01.970Z,17.69
2022-09-30T20:14:47.071Z,17.72
2022-09-30T20:17:14.783Z,17.89
2022-09-30T20:19:52.124Z,17.73
2022-09-30T20:22:19.135Z,17.75
2022-09-30T20:24:45.980Z,17.74
2022-09-30T20:27:12.656Z,17.55
2022-09-30T20:29:39.621Z,17.65
2022-09-30T20:32:07.916Z,17.39
2022-09-30T20:34:38.673Z,17.82
2022-09-30T20:37:06.940Z,17.85
2022-09-30T20:39:34.726Z,17.71
2022-09-30T20:42:01.431Z,17.73
2022-09-30T20:44:28.375Z,17.82
2022-09-30T20:46:55.057Z,17.90
2022-09-30T20:49:21.808Z,17.76
2022-09-30T20:51:49.113Z,17.78
2022-09-30T20:54:15.764Z,17.65
2022-09-30T20:57:05.818Z,17.52
2022-09-30T20:59:29.390Z,17.58
2022-09-30T21:01:56.196Z,17.76
2022-09-30T21:04:22.954Z,17.76
2022-09-30T21:06:49.896Z,17.87
2022-09-30T21:09:17.081Z,17.72
2022-09-30T21:11:44.413Z,17.95
2022-09-30T21:14:11.595Z,17.53
2022-09-30T21:16:38.411Z,17.74
2022-09-30T21:19:05.191Z,17.88
2022-09-30T21:21:32.381Z,17.75
2022-09-30T21:23:59.996Z,17.78
2022-09-30T21:26:26.910Z,17.80
2022-09-30T21:28:54.021Z,17.74
2022-09-30T21:31:21.919Z,17.85
2022-09-30T21:33:58.260Z,17.89
2022-09-30T21:36:26.018Z,17.86
2022-09-30T21:38:53.055Z,17.70
2022-09-30T21:41:21.853Z,17.71
2022-09-30T21:43:49.348Z,17.69
2022-09-30T21:46:16.479Z,17.86
2022-09-30T21:48:43.611Z,18.00
2022-09-30T21:51:10.557Z,18.05
2022-09-30T21:53:38.990Z,17.97
2022-09-30T21:56:06.065Z,17.99
2022-09-30T21:58:33.131Z,17.94
2022-09-30T22:01:01.008Z,18.05
2022-09-30T22:03:28.850Z,18.02
2022-09-30T22:05:56.412Z,17.92
2022-09-30T22:08:24.356Z,18.15
2022-09-30T22:10:51.351Z,18.13
2022-09-30T22:13:18.145Z,18.21
2022-09-30T22:15:45.241Z,18.03
2022-09-30T22:18:17.431Z,17.98
2022-09-30T22:20:44.581Z,17.94
2022-09-30T22:23:11.570Z,17.76
2022-09-30T22:25:38.546Z,17.87
2022-09-30T22:28:05.532Z,17.97
2022-09-30T22:30:32.635Z,18.08
2022-09-30T22:33:18.115Z,17.85
2022-09-30T22:36:03.804Z,17.95
2022-09-30T22:38:31.263Z,17.90
2022-09-30T22:40:59.413Z,17.90
2022-09-30T22:43:26.537Z,17.93
2022-09-30T22:46:04.331Z,17.83
2022-09-30T22:48:33.973Z,18.02
2022-09-30T22:51:01.197Z,18.01
2022-09-30T22:53:27.880Z,17.97
2022-09-30T22:55:54.983Z,17.89
2022-09-30T22:58:24.244Z,17.98
2022-09-30T23:00:54.184Z,17.75
2022-09-30T23:03:20.935Z,17.81
2022-09-30T23:05:48.068Z,18.03
2022-09-30T23:08:14.805Z,17.47
2022-09-30T23:10:50.774Z,17.67
2022-09-30T23:13:20.045Z,17.93
2022-09-30T23:15:47.652Z,17.99
2022-09-30T23:18:17.101Z,17.82
2022-09-30T23:20:53.671Z,17.89
2022-09-30T23:23:20.365Z,17.92
2022-09-30T23:25:47.413Z,17.99
2022-09-30T23:28:14.184Z,18.08
2022-09-30T23:30:40.954Z,18.10
2022-09-30T23:33:09.373Z,18.10
2022-09-30T23:35:36.121Z,17.89
2022-09-30T23:38:03.053Z,18.06
2022-09-30T23:40:31.513Z,18.02
2022-09-30T23:42:58.209Z,18.10
2022-09-30T23:45:24.949Z,18.04
2022-09-30T23:47:52.721Z,18.02
2022-09-30T23:50:19.629Z,18.04
2022-09-30T23:52:46.337Z,18.15
2022-09-30T23:55:13.337Z,18.27
2022-09-30T23:57:40.064Z,18.17
